Hachinohe Air Base, Japan

3:12 AM JST on July 05, 2015 (GMT +0900)
Hachinohe Aero | | Change Station
CLOSE
Current Station
Airport
Location: Hachinohe AB,
Elevation: 161 ft
Nearby Weather Stations

Elev 161 ft 40.55 °N, 141.47 °E | Updated 26 minutes ago

Fog
Fog
57 °F
Feels Like 57 °F
N
6
Wind Variable Wind from South

Today
High -- | Low -- °F
--% Chance of Precip.
Yesterday
High -- | Low -- °F
Precip. -- in
4:08 AM 7:08 PM
Waning Gibbous, 91% visible
Pressure 29.86 in
Visibility 0.6 miles
Clouds Mostly Cloudy 100 ft
Overcast 300 ft
Dew Point 57 °F
Humidity 100%
Rainfall 0.00 in
Snow Depth Not available.
UV 0 out of 12
Pollen Not available.
Air Quality Not available.
Flu Activity Not available.
SPECI RJSH 041746Z 19005KT 0900 R25/0400V0550N FG FEW000 BKN001 OVC003 14/14 Q1011 RMK 2ST000 5ST001 8ST003 A2987 R0450

More Conditions Fewer Conditions

Pressure 29.86 in
Visibility 0.6 miles
Clouds Mostly Cloudy 100 ft
Overcast 300 ft
Dew Point 57 °F
Humidity 100%
Rainfall 0.00 in
Snow Depth Not available.
UV 0 out of 12
Pollen Not available.
Air Quality Not available.
Flu Activity Not available.
SPECI RJSH 041746Z 19005KT 0900 R25/0400V0550N FG FEW000 BKN001 OVC003 14/14 Q1011 RMK 2ST000 5ST001 8ST003 A2987 R0450

More Conditions Fewer Conditions

10-Day Weather Forecast

×

Almanac

Astronomy

Jul. 05, 2015 Rise Set
Actual Time
Civil Twilight
Nautical Twilight
Astronomical Twilight
Moon
Length of Visible Light
Length of Day
Tomorrow will be .
, % of the Moon is Illuminated

Today's Extremes

Country Highs Country Lows

Community

WunderPhotos

Upload Photos

1,835,030 photos uploaded!

WunderBlogs® & News

Nearby

Air Quality

  Air Quality AQ Index Pollutant
Not available.

Snow Depth

Station Depth Elevation

Earthquake Activity

City Distance Mag. Time & Date
Minimum magnitude displayed is 2.5.

Coastal Water Temperatures

Place Temperature

Stations

Nearby Weather Stations

Station Location Temp. Windchill Dew Point Humidity Wind Precip. Elev Updated Type